Jamestown, Kentucky
Current Conditions -  °F | °C
As of 12:56 AM on Monday 24 Nov 2014 (Local Time) from KEKQ Reporting Station
Broken Clouds Broken Clouds  
Wind Chill: 63°   Ceiling: 6500
Heat Index: 63°   Visibility: 10mi
Dew Point: 56°   Wind: 20mph
Humidity: 78%   Direction: 210°SSW
Pressure: 29.54"   Gusts: 25mph
Location:  36.98°N, 85.06°W
Report Text: KEKQ 240656Z AUTO 21017G22KT 10SM SCT027 BKN065 BKN075 17/13 A2954 RMK AO2 T01720133 PK WND 21028/0629 SLP001
Loading
Personal Weather Stations






























Interactive Weather Map New forecast layout! Learn more

10-Day Weather Forecast

Advertisements
Track Severe Weather on mobile